Chino Hills, CA (91709)

8:27 AM PST on February 13, 2016 (GMT -0800)
Enclos Corp. | | Change Station
CLOSE
Current Station
Personal Weather Station
Location: Chino, CA
Elevation: 612 ft
Nearby Weather Stations

Elev 612 ft 33.98 °N, 117.69 °W | Updated 14 seconds ago

Partly Cloudy
Partly Cloudy
54.1 °F
Feels Like 54.1 °F
N
0.0
Wind Variable Wind from NW
Gusts 0.0 mph

Today
High -- | Low -- °F
--% Chance of Precip.
Yesterday
High -- | Low -- °F
Precip. -- in
Pressure 30.12 in
Visibility 10.0 miles
Clouds Few 25000 ft
Dew Point 42 °F
Humidity 63%
Rainfall 0.00 in
Snow Depth Not available.
6:37 AM 5:32 PM
Waxing Crescent, 32% visible
METAR KCNO 131553Z 00000KT 10SM FEW250 11/06 A3013 RMK AO2 SLP200 T01060061
Pressure 30.12 in
Visibility 10.0 miles
Clouds Few 25000 ft
Dew Point 42 °F
Humidity 63%
Rainfall 0.00 in
Snow Depth Not available.
6:37 AM 5:32 PM
Waxing Crescent, 32% visible
METAR KCNO 131553Z 00000KT 10SM FEW250 11/06 A3013 RMK AO2 SLP200 T01060061

10-Day Weather Forecast

Almanac

Astronomy

Feb. 13, 2016 Rise Set
Actual Time
Civil Twilight
Nautical Twilight
Astronomical Twilight
Moon
Length of Visible Light
Length of Day
Tomorrow will be .
, % of the Moon is Illuminated

Today's Extremes

State Highs State Lows

Community

WunderPhotos

Upload Photos

1,892,599 photos uploaded!

WunderBlog® & News

Nearby

Air Quality

  Air Quality AQ Index Pollutant
Not available.

Snow Depth

Station Depth Elevation

Earthquake Activity

City Distance Mag. Time & Date
Minimum magnitude displayed is 2.5.

Coastal Water Temperatures

Place Temperature

Stations

Nearby Weather Stations

Station Location Temp. Windchill Dew Point Humidity Wind Precip. Elev Updated Type
                   

Watches & Warnings

There are currently no watches in effect.